Aviation Digital Data Service (ADDS)

Output produced by METARs form (0928 UTC 25 March 2019)
found at http://aviationweather.gov/metar/data/
 
METAR text: KFFZ 250854Z AUTO 02007KT 10SM CLR 15/M01 A3012 RMK AO2 SLP181 T01501006 58007
Conditions at: KFFZ (MESA/FALCON FLD , AZ, US) observed 0854 UTC 25 March 2019
Temperature: 15.0°C (59°F)
Dewpoint: -0.6°C (31°F) [RH = 34%]
Pressure (altimeter): 30.12 inches Hg (1020.1 mb)
[Sea-level pressure: 1018.1 mb]
Winds: from the NNE (20 degrees) at 8 MPH (7 knots; 3.6 m/s)
Visibility: 10 or more miles (16+ km)
Ceiling: at least 12,000 feet AGL
Clouds: sky clear below 12,000 feet AGL
Weather: automated observation with no human augmentation;
there may or may not be significant weather present at this time

METAR text: KIWA 250915Z AUTO 12006KT 10SM CLR 11/02 A3013 RMK AO2 PWINO T01070020 PRESENT WEATHER SENSOR DATA MISSING
Conditions at: KIWA (CHANDLER/MESA , AZ, US) observed 0915 UTC 25 March 2019
Temperature: 10.7°C (51°F)
Dewpoint: 2.0°C (36°F) [RH = 55%]
Pressure (altimeter): 30.13 inches Hg (1020.4 mb)
Winds: from the ESE (120 degrees) at 7 MPH (6 knots; 3.1 m/s)
Visibility: 10 or more miles (16+ km)
Ceiling: at least 12,000 feet AGL
Clouds: sky clear below 12,000 feet AGL
Weather: automated observation with no human augmentation;
there may or may not be significant weather present at this time

METAR text: KIWA 250855Z AUTO 12007KT 10SM CLR 11/02 A3013 RMK AO2 PWINO T01120020 PRESENT WEATHER SENSOR DATA MISSING
Conditions at: KIWA (CHANDLER/MESA , AZ, US) observed 0855 UTC 25 March 2019
Temperature: 11.2°C (52°F)
Dewpoint: 2.0°C (36°F) [RH = 53%]
Pressure (altimeter): 30.13 inches Hg (1020.4 mb)
Winds: from the ESE (120 degrees) at 8 MPH (7 knots; 3.6 m/s)
Visibility: 10 or more miles (16+ km)
Ceiling: at least 12,000 feet AGL
Clouds: sky clear below 12,000 feet AGL
Weather: automated observation with no human augmentation;
there may or may not be significant weather present at this time

METAR text: KIWA 250835Z AUTO 14007KT 10SM CLR 10/03 A3014 RMK AO2 PWINO T01020026 PRESENT WEATHER SENSOR DATA MISSING
Conditions at: KIWA (CHANDLER/MESA , AZ, US) observed 0835 UTC 25 March 2019
Temperature: 10.2°C (50°F)
Dewpoint: 2.6°C (37°F) [RH = 59%]
Pressure (altimeter): 30.14 inches Hg (1020.7 mb)
Winds: from the SE (140 degrees) at 8 MPH (7 knots; 3.6 m/s)
Visibility: 10 or more miles (16+ km)
Ceiling: at least 12,000 feet AGL
Clouds: sky clear below 12,000 feet AGL
Weather: automated observation with no human augmentation;
there may or may not be significant weather present at this time

Forecast for: KIWA (CHANDLER/MESA , AZ, US)
Text: KIWA 250521Z 2506/2606 11005KT P6SM FEW250
Forecast period: 0600 to 2200 UTC 25 March 2019
Forecast type: FROM: standard forecast or significant change
Winds: from the ESE (110 degrees) at 6 MPH (5 knots; 2.6 m/s)
Visibility: 6 or more miles 10+ km)
Ceiling: at least 12,000 feet AGL
Clouds: few clouds at 25000 feet AGL
Weather: no significant weather forecast for this period
Text: FM252200 23005KT P6SM SKC AMD LTD TO CLD VIS AND WIND TIL 251200
Forecast period: 2200 UTC 25 March 2019 to 0600 UTC 26 March 2019
Forecast type: FROM: standard forecast or significant change
Winds: from the SW (230 degrees) at 6 MPH (5 knots; 2.6 m/s)
Visibility: 6 or more miles 10+ km)
Clouds: clear skies
Weather: no significant weather forecast for this period